Time;durP1;ratioP1;P1;durP2;ratioP2;P2;SDS_P1;SDS_P2;PMS_P1;PMS_P2;Temp;Humidity;BMP_temperature;BMP_pressure;BME280_temperature;BME280_humidity;BME280_pressure;Samples;Min_cycle;Max_cycle;Signal;HPM_P1;HPM_P2
2021/01/01 00:00:22;;;;;;;79.00;43.95;;;;;;;1.92;99.88;100270.28;6217728;28;20112;-73
2021/01/01 00:03:23;;;;;;;94.30;49.17;;;;;;;1.93;100.00;100274.56;6218213;28;20057;-74
2021/01/01 00:06:24;;;;;;;87.10;44.40;;;;;;;1.90;99.44;100266.88;6217571;28;20447;-76
2021/01/01 00:09:26;;;;;;;52.35;29.08;;;;;;;1.82;98.44;100271.38;6217815;28;20046;-74
2021/01/01 00:12:28;;;;;;;41.22;22.60;;;;;;;1.82;98.59;100271.38;6217760;28;20104;-74
2021/01/01 00:15:28;;;;;;;29.42;17.63;;;;;;;1.82;99.02;100269.66;6217472;28;20064;-74
2021/01/01 00:18:29;;;;;;;28.58;15.77;;;;;;;1.77;98.68;100264.59;6202626;28;20047;-74
2021/01/01 00:21:31;;;;;;;26.70;15.93;;;;;;;1.67;99.13;100270.88;6203603;28;20538;-75
2021/01/01 00:24:32;;;;;;;26.08;15.70;;;;;;;1.60;98.96;100273.69;6208879;28;20586;-73
2021/01/01 00:27:33;;;;;;;29.63;17.52;;;;;;;1.62;99.07;100272.72;6207939;28;20495;-75
2021/01/01 00:30:34;;;;;;;31.27;17.00;;;;;;;1.53;98.48;100275.53;6210351;28;20042;-75
2021/01/01 00:33:36;;;;;;;33.10;18.42;;;;;;;1.45;99.27;100277.47;6215842;28;20064;-75
2021/01/01 00:36:36;;;;;;;31.00;18.88;;;;;;;1.37;99.77;100277.66;6222419;28;20089;-73
2021/01/01 00:39:38;;;;;;;28.98;16.60;;;;;;;1.30;99.53;100283.00;6222226;28;20584;-73
2021/01/01 00:42:39;;;;;;;28.75;17.20;;;;;;;1.24;100.00;100284.84;6222141;28;20052;-75
2021/01/01 00:45:40;;;;;;;30.90;16.80;;;;;;;1.22;99.59;100278.00;6222647;28;20054;-73
2021/01/01 00:48:41;;;;;;;28.67;17.05;;;;;;;1.15;99.98;100279.03;6221532;28;20056;-73
2021/01/01 00:51:45;;;;;;;31.08;17.67;;;;;;;1.10;100.00;100278.28;6222548;28;20057;-74
2021/01/01 00:54:47;;;;;;;27.77;17.73;;;;;;;1.02;99.83;100279.28;6221882;28;20092;-73
2021/01/01 00:57:48;;;;;;;29.60;17.02;;;;;;;1.01;100.00;100276.75;6221838;28;20054;-73
2021/01/01 01:00:49;;;;;;;30.23;17.65;;;;;;;0.99;100.00;100281.09;6221478;28;20048;-71
2021/01/01 01:03:50;;;;;;;31.33;18.80;;;;;;;0.94;100.00;100276.00;6222180;28;20137;-71
2021/01/01 01:06:51;;;;;;;31.02;18.70;;;;;;;0.95;100.00;100277.75;6221220;28;20054;-72
2021/01/01 01:09:53;;;;;;;30.33;18.60;;;;;;;0.92;100.00;100272.63;6221798;28;20053;-73
2021/01/01 01:12:54;;;;;;;30.85;18.33;;;;;;;0.92;100.00;100277.78;6221591;28;20062;-71
2021/01/01 01:15:55;;;;;;;35.80;18.30;;;;;;;0.92;100.00;100279.53;6225063;28;20529;-72
2021/01/01 01:18:57;;;;;;;27.08;16.27;;;;;;;0.95;100.00;100287.22;6225720;28;20410;-72
2021/01/01 01:21:58;;;;;;;32.30;18.38;;;;;;;0.92;100.00;100287.28;6224722;28;20056;-72
2021/01/01 01:25:00;;;;;;;33.33;20.33;;;;;;;0.97;100.00;100293.22;6225398;28;20050;-72
2021/01/01 01:28:03;;;;;;;32.33;18.98;;;;;;;1.01;100.00;100293.13;6225440;28;20042;-73
2021/01/01 01:31:04;;;;;;;34.17;19.00;;;;;;;1.07;100.00;100297.31;6225072;28;20054;-72
2021/01/01 01:34:05;;;;;;;38.00;21.20;;;;;;;1.11;100.00;100305.84;6225244;28;20060;-73
2021/01/01 01:37:06;;;;;;;38.17;20.70;;;;;;;1.14;100.00;100306.66;6223791;28;20061;-74
2021/01/01 01:40:09;;;;;;;42.08;22.88;;;;;;;1.22;100.00;100304.72;6224410;28;20073;-74
2021/01/01 01:43:10;;;;;;;37.92;21.75;;;;;;;1.24;100.00;100302.97;6224394;28;20415;-73
2021/01/01 01:46:11;;;;;;;38.85;21.90;;;;;;;1.29;100.00;100308.03;6224603;28;20057;-73
2021/01/01 01:49:15;;;;;;;42.08;22.83;;;;;;;1.27;100.00;100309.78;6224143;28;20506;-74
2021/01/01 01:52:16;;;;;;;39.65;22.40;;;;;;;1.31;100.00;100302.81;6224199;28;20049;-74
2021/01/01 01:55:18;;;;;;;41.72;23.30;;;;;;;1.31;100.00;100308.84;6224413;28;20062;-75
2021/01/01 01:58:21;;;;;;;43.08;23.73;;;;;;;1.34;100.00;100308.78;6224507;28;20500;-73
2021/01/01 02:01:22;;;;;;;38.45;23.25;;;;;;;1.39;100.00;100312.13;6223950;28;20149;-74
2021/01/01 02:04:23;;;;;;;39.97;21.88;;;;;;;1.49;100.00;100315.34;6224521;28;20050;-73
2021/01/01 02:07:24;;;;;;;40.95;22.00;;;;;;;1.39;100.00;100313.84;6223903;28;20065;-74
2021/01/01 02:10:26;;;;;;;41.97;23.02;;;;;;;1.32;100.00;100322.63;6224213;28;20050;-74
2021/01/01 02:13:27;;;;;;;43.65;23.63;;;;;;;1.35;100.00;100320.84;6223974;28;20053;-74
2021/01/01 02:16:32;;;;;;;44.90;24.27;;;;;;;1.38;100.00;100320.78;6224151;28;20056;-73
2021/01/01 02:19:33;;;;;;;41.08;22.13;;;;;;;1.49;100.00;100323.09;6223660;28;20225;-73
2021/01/01 02:22:35;;;;;;;37.80;21.58;;;;;;;1.44;100.00;100322.38;6223378;28;20053;-74
2021/01/01 02:25:36;;;;;;;40.35;22.20;;;;;;;1.53;100.00;100324.75;6199882;28;20529;-73
2021/01/01 02:28:37;;;;;;;32.50;19.73;;;;;;;1.70;100.00;100317.44;6198744;28;20078;-73
2021/01/01 02:31:38;;;;;;;39.55;20.77;;;;;;;1.52;100.00;100326.47;6199543;28;20057;-74
2021/01/01 02:34:39;;;;;;;39.75;20.80;;;;;;;1.49;100.00;100328.28;6199386;28;20050;-75
2021/01/01 02:37:41;;;;;;;42.40;23.45;;;;;;;1.45;100.00;100324.06;6198961;28;20054;-73
2021/01/01 02:40:42;;;;;;;38.42;21.02;;;;;;;1.47;100.00;100324.91;6198917;28;20054;-74
2021/01/01 02:43:42;;;;;;;36.47;20.90;;;;;;;1.58;100.00;100327.22;6199273;28;20426;-73
2021/01/01 02:46:43;;;;;;;37.97;21.05;;;;;;;1.47;100.00;100325.75;6198815;28;20543;-73
2021/01/01 02:49:44;;;;;;;37.15;21.08;;;;;;;1.43;100.00;100321.50;6198673;28;20474;-73
2021/01/01 02:52:46;;;;;;;38.10;20.30;;;;;;;1.35;100.00;100317.41;6220378;28;20521;-72
2021/01/01 02:55:48;;;;;;;42.88;22.58;;;;;;;1.35;100.00;100326.00;6223118;28;20056;-72
2021/01/01 02:58:49;;;;;;;41.47;22.17;;;;;;;1.35;100.00;100318.25;6222653;28;20430;-73
2021/01/01 03:01:51;;;;;;;37.40;20.30;;;;;;;1.34;100.00;100316.53;6222840;28;20132;-74
2021/01/01 03:04:52;;;;;;;39.53;20.90;;;;;;;1.26;100.00;100314.13;6222632;28;20050;-73
2021/01/01 03:07:53;;;;;;;40.63;21.23;;;;;;;1.26;100.00;100315.84;6222697;28;20054;-72
2021/01/01 03:10:54;;;;;;;38.38;22.38;;;;;;;1.27;100.00;100321.03;6222802;28;20049;-73
2021/01/01 03:13:55;;;;;;;40.63;21.80;;;;;;;1.26;100.00;100315.84;6222720;28;20075;-73
2021/01/01 03:16:56;;;;;;;41.25;21.98;;;;;;;1.27;100.00;100321.03;6222792;28;20069;-73
2021/01/01 03:19:57;;;;;;;44.83;23.60;;;;;;;1.30;100.00;100320.09;6222175;28;20050;-73
2021/01/01 03:22:58;;;;;;;39.78;20.80;;;;;;;1.23;100.00;100321.13;6222333;28;20502;-74
2021/01/01 03:25:59;;;;;;;37.35;21.15;;;;;;;1.27;100.00;100322.72;6222495;28;20054;-72
2021/01/01 03:29:00;;;;;;;35.92;20.08;;;;;;;1.18;100.00;100326.41;6221773;28;20060;-73
2021/01/01 03:32:01;;;;;;;37.75;20.83;;;;;;;1.14;100.00;100323.91;6222559;28;20050;-72
2021/01/01 03:35:06;;;;;;;37.03;20.30;;;;;;;1.12;100.00;100328.25;6222367;28;20056;-74
2021/01/01 03:38:08;;;;;;;43.10;21.50;;;;;;;1.06;100.00;100323.22;6221215;28;20562;-72
2021/01/01 03:41:09;;;;;;;43.30;23.27;;;;;;;1.00;100.00;100326.78;6219118;28;20594;-72
2021/01/01 03:44:09;;;;;;;42.60;22.80;;;;;;;0.96;100.00;100320.81;6210193;28;20050;-72
2021/01/01 03:47:10;;;;;;;36.13;20.98;;;;;;;0.94;100.00;100330.34;6208083;28;20046;-71
2021/01/01 03:50:12;;;;;;;38.95;22.20;;;;;;;0.93;100.00;100322.63;6210140;28;20050;-72
2021/01/01 03:53:13;;;;;;;40.60;22.50;;;;;;;0.83;100.00;100326.28;6213744;28;20069;-72
2021/01/01 03:56:14;;;;;;;40.97;21.67;;;;;;;0.81;100.00;100322.84;6211930;28;20049;-73
2021/01/01 03:59:15;;;;;;;44.20;23.83;;;;;;;0.76;100.00;100325.53;6209296;28;20049;-72
2021/01/01 04:02:16;;;;;;;45.92;23.90;;;;;;;0.79;100.00;100325.50;6221756;28;20073;-72
2021/01/01 04:05:17;;;;;;;38.28;21.90;;;;;;;0.75;100.00;100324.69;6222210;28;20053;-72
2021/01/01 04:08:19;;;;;;;40.92;23.10;;;;;;;0.73;100.00;100323.03;6221757;28;20050;-72
2021/01/01 04:11:20;;;;;;;42.28;22.23;;;;;;;0.84;100.00;100318.47;6221804;28;20042;-72
2021/01/01 04:14:20;;;;;;;39.22;21.30;;;;;;;0.70;100.00;100323.94;6221718;28;20054;-72
2021/01/01 04:17:21;;;;;;;45.33;23.88;;;;;;;0.73;100.00;100326.47;6221902;28;20178;-71
2021/01/01 04:20:22;;;;;;;47.08;23.05;;;;;;;0.66;100.00;100327.47;6221229;28;20058;-72
2021/01/01 04:23:24;;;;;;;45.92;22.38;;;;;;;0.72;100.00;100332.50;6221721;28;20077;-72
2021/01/01 04:26:25;;;;;;;44.53;25.17;;;;;;;0.64;100.00;100324.06;6215650;28;20053;-71
2021/01/01 04:29:26;;;;;;;46.92;24.08;;;;;;;0.62;100.00;100320.63;6234486;28;20073;-72
2021/01/01 04:32:27;;;;;;;44.78;21.83;;;;;;;0.61;100.00;100323.25;6224106;28;20046;-72
2021/01/01 04:35:28;;;;;;;45.97;23.25;;;;;;;0.54;100.00;100335.44;6221742;28;20137;-72
2021/01/01 04:38:29;;;;;;;41.05;21.67;;;;;;;0.48;100.00;100339.00;6221466;28;20053;-72
2021/01/01 04:41:31;;;;;;;45.03;22.65;;;;;;;0.37;100.00;100340.09;6221297;28;20046;-72
2021/01/01 04:44:32;;;;;;;46.85;21.35;;;;;;;0.31;100.00;100346.19;6221707;28;20054;-72
2021/01/01 04:47:33;;;;;;;38.22;20.50;;;;;;;0.25;100.00;100346.31;6221234;28;20418;-72
2021/01/01 04:50:34;;;;;;;39.63;21.73;;;;;;;0.23;100.00;100348.09;6221080;28;20042;-71
2021/01/01 04:53:38;;;;;;;46.42;22.58;;;;;;;0.23;100.00;100351.53;6221633;28;20499;-72
2021/01/01 04:56:46;;;;;;;40.13;22.42;;;;;;;0.21;100.00;100352.41;6221110;28;20057;-72
2021/01/01 04:59:47;;;;;;;41.17;22.70;;;;;;;0.17;100.00;100351.63;6221136;28;20046;-72
2021/01/01 05:02:48;;;;;;;42.55;22.77;;;;;;;0.22;100.00;100348.94;6221132;28;20081;-72
2021/01/01 05:05:49;;;;;;;50.88;26.00;;;;;;;0.19;100.00;100342.13;6221533;28;20461;-72
2021/01/01 05:08:51;;;;;;;45.17;24.55;;;;;;;0.24;100.00;100353.22;6220721;28;20057;-72
2021/01/01 05:12:06;;;;;;;49.85;23.27;;;;;;;0.22;100.00;100348.94;6223669;28;20057;-72
2021/01/01 05:15:08;;;;;;;45.45;23.05;;;;;;;0.12;100.00;100357.75;6225716;28;20058;-71
2021/01/01 05:18:20;;;;;;;39.13;21.02;;;;;;;0.04;100.00;100352.69;6225232;28;20048;-72
2021/01/01 05:21:22;;;;;;;49.45;23.88;;;;;;;0.02;100.00;100354.47;6224985;28;20499;-72
2021/01/01 05:24:24;;;;;;;44.45;22.17;;;;;;;0.02;100.00;100361.38;6225740;28;20059;-72
2021/01/01 05:27:33;;;;;;;43.75;22.10;;;;;;;-0.01;100.00;100360.53;6225187;28;20046;-71
2021/01/01 05:30:34;;;;;;;39.25;21.90;;;;;;;-0.01;100.00;100352.78;6225274;28;20042;-72
2021/01/01 05:33:35;;;;;;;42.17;21.58;;;;;;;-0.05;100.00;100358.88;6225463;28;20526;-72
2021/01/01 05:36:38;;;;;;;43.92;21.67;;;;;;;-0.10;100.00;100352.91;6225203;28;20057;-71
2021/01/01 05:39:39;;;;;;;44.97;22.33;;;;;;;-0.09;100.00;100364.09;6224733;28;20054;-72
2021/01/01 05:42:40;;;;;;;46.67;22.83;;;;;;;-0.13;100.00;100365.91;6225235;28;20046;-72
2021/01/01 05:45:41;;;;;;;47.08;23.35;;;;;;;-0.12;100.00;100366.75;6224993;28;20056;-72
2021/01/01 05:48:42;;;;;;;44.50;23.38;;;;;;;-0.14;100.00;100355.56;6224306;28;20131;-72
2021/01/01 05:51:43;;;;;;;45.50;23.80;;;;;;;-0.11;100.00;100361.56;6225119;28;20050;-71
2021/01/01 05:54:47;;;;;;;42.75;22.02;;;;;;;-0.17;100.00;100356.50;6224748;28;20108;-72
2021/01/01 05:57:48;;;;;;;51.13;22.85;;;;;;;-0.21;100.00;100367.75;6224728;28;20099;-72
2021/01/01 06:00:54;;;;;;;43.00;21.90;;;;;;;-0.28;100.00;100372.13;6224159;28;20054;-72
2021/01/01 06:03:55;;;;;;;47.15;22.52;;;;;;;-0.28;100.00;100371.28;6224777;28;20050;-72
2021/01/01 06:07:00;;;;;;;45.15;22.77;;;;;;;-0.33;100.00;100373.94;6224270;28;20049;-72
2021/01/01 06:10:04;;;;;;;46.00;22.58;;;;;;;-0.30;100.00;100383.38;6224424;28;20104;-73
2021/01/01 06:13:07;;;;;;;45.13;21.08;;;;;;;-0.31;100.00;100385.09;6224169;28;20061;-72
2021/01/01 06:16:09;;;;;;;50.92;23.45;;;;;;;-0.32;100.00;100385.13;6224329;28;20053;-72
2021/01/01 06:19:12;;;;;;;50.63;22.15;;;;;;;-0.31;100.00;100392.00;6223548;28;20056;-72
2021/01/01 06:22:15;;;;;;;51.25;23.08;;;;;;;-0.27;100.00;100402.25;6223831;28;20042;-72
2021/01/01 06:25:17;;;;;;;49.58;24.15;;;;;;;-0.28;100.00;100394.53;6224184;28;20495;-73
2021/01/01 06:28:19;;;;;;;52.92;24.13;;;;;;;-0.29;100.00;100406.59;6223757;28;20180;-72
2021/01/01 06:31:21;;;;;;;51.63;25.00;;;;;;;-0.26;100.00;100403.13;6223529;28;20398;-72
2021/01/01 06:34:23;;;;;;;54.53;24.52;;;;;;;-0.24;100.00;100406.50;6223772;28;20049;-71
2021/01/01 06:37:41;;;;;;;58.00;25.60;;;;;;;-0.20;100.00;100413.34;6223699;28;20049;-73
2021/01/01 06:40:43;;;;;;;54.20;25.20;;;;;;;-0.15;100.00;100416.72;6223211;28;20050;-72
2021/01/01 06:43:54;;;;;;;53.22;23.52;;;;;;;-0.18;100.00;100416.78;6223741;28;20058;-72
2021/01/01 06:46:55;;;;;;;48.92;22.73;;;;;;;-0.19;100.00;100425.38;6223054;28;20049;-72
2021/01/01 06:49:55;;;;;;;51.42;24.63;;;;;;;-0.24;100.00;100419.44;6223286;28;20057;-72
2021/01/01 06:53:04;;;;;;;51.00;24.48;;;;;;;-0.25;100.00;100425.47;6223498;28;20577;-72
2021/01/01 06:56:08;;;;;;;47.70;23.13;;;;;;;-0.22;100.00;100422.00;6222934;28;20054;-72
2021/01/01 06:59:11;;;;;;;56.65;22.98;;;;;;;-0.27;100.00;100427.22;6222993;28;20054;-72
2021/01/01 07:02:29;;;;;;;55.88;25.20;;;;;;;-0.21;100.00;100434.88;6223105;28;20049;-72
2021/01/01 07:05:30;;;;;;;48.40;22.27;;;;;;;-0.16;100.00;100438.25;6222993;28;20462;-71
2021/01/01 07:08:43;;;;;;;58.63;25.17;;;;;;;-0.20;100.00;100431.41;6223010;28;20058;-72
2021/01/01 07:11:46;;;;;;;49.33;23.85;;;;;;;-0.18;100.00;100446.88;6223189;28;20053;-71
2021/01/01 07:14:47;;;;;;;49.05;23.83;;;;;;;-0.14;100.00;100446.81;6223137;28;20069;-72
2021/01/01 07:17:48;;;;;;;52.88;24.88;;;;;;;-0.09;100.00;100445.03;6273380;23;20084;-70
2021/01/01 07:20:49;;;;;;;50.67;25.05;;;;;;;-0.06;100.00;100444.97;6245973;28;20053;-68
2021/01/01 07:23:50;;;;;;;58.72;26.92;;;;;;;0.01;100.00;100447.50;6238718;28;20049;-68
2021/01/01 07:26:51;;;;;;;52.70;25.45;;;;;;;0.04;100.00;100450.84;6246880;28;20053;-68
2021/01/01 07:29:52;;;;;;;61.53;26.88;;;;;;;0.15;100.00;100458.47;6246828;28;20053;-69
2021/01/01 07:32:54;;;;;;;57.22;26.92;;;;;;;0.11;100.00;100460.22;6246621;28;20073;-69
2021/01/01 07:35:57;;;;;;;54.38;26.50;;;;;;;0.19;100.00;100458.41;6246179;28;20566;-69
2021/01/01 07:39:03;;;;;;;63.25;27.70;;;;;;;0.23;100.00;100459.19;6246665;28;20056;-71
2021/01/01 07:42:07;;;;;;;61.15;26.70;;;;;;;0.28;100.00;100464.31;6246826;28;20170;-69
2021/01/01 07:45:12;;;;;;;57.90;26.83;;;;;;;0.28;100.00;100470.31;6246810;28;20484;-68
2021/01/01 07:48:13;;;;;;;59.88;26.63;;;;;;;0.27;100.00;100468.59;6246345;28;20107;-68
2021/01/01 07:51:14;;;;;;;63.08;26.90;;;;;;;0.30;100.00;100471.13;6246189;28;20050;-68
2021/01/01 07:54:15;;;;;;;59.47;27.55;;;;;;;0.31;100.00;100467.66;6246616;28;20410;-68
2021/01/01 07:57:21;;;;;;;57.22;26.05;;;;;;;0.34;100.00;100471.94;6246489;28;20060;-68
2021/01/01 08:00:22;;;;;;;65.13;26.85;;;;;;;0.37;100.00;100471.91;6246239;28;20053;-68
2021/01/01 08:03:23;;;;;;;57.80;26.00;;;;;;;0.34;100.00;100471.94;6246701;28;20053;-68
2021/01/01 08:06:25;;;;;;;64.80;27.05;;;;;;;0.31;100.00;100477.16;6246154;28;20123;-68
2021/01/01 08:09:26;;;;;;;59.03;25.23;;;;;;;0.29;100.00;100479.78;6246264;28;20053;-68
2021/01/01 08:12:27;;;;;;;56.10;25.88;;;;;;;0.29;100.00;100481.50;6246420;28;20060;-68
2021/01/01 08:15:29;;;;;;;59.58;25.70;;;;;;;0.28;100.00;100480.66;6246320;28;20053;-68
2021/01/01 08:18:29;;;;;;;61.20;26.60;;;;;;;0.42;100.00;100480.44;6245825;28;20053;-68
2021/01/01 08:21:39;;;;;;;59.55;24.98;;;;;;;0.36;100.00;100483.94;6245873;28;20045;-69
2021/01/01 08:24:43;;;;;;;56.35;26.20;;;;;;;0.35;100.00;100482.25;6246383;28;20056;-68
2021/01/01 08:27:46;;;;;;;54.50;25.05;;;;;;;0.37;100.00;100483.09;6245928;28;20053;-69
2021/01/01 08:30:53;;;;;;;57.60;26.13;;;;;;;0.42;100.00;100485.59;6245705;28;20437;-68
2021/01/01 08:33:54;;;;;;;51.40;25.85;;;;;;;0.36;100.00;100483.09;6246253;28;20049;-68
2021/01/01 08:36:55;;;;;;;56.85;26.45;;;;;;;0.47;100.00;100488.97;6245793;28;20513;-68
2021/01/01 08:40:05;;;;;;;50.28;23.58;;;;;;;0.44;100.00;100483.84;6245757;28;20056;-68
2021/01/01 08:43:06;;;;;;;55.88;24.13;;;;;;;0.52;100.00;100489.75;6246164;28;20042;-68
2021/01/01 08:46:14;;;;;;;59.38;24.00;;;;;;;0.59;100.00;100487.91;6248247;28;20142;-69
2021/01/01 08:49:19;;;;;;;52.72;22.80;;;;;;;0.57;100.00;100492.25;6250540;28;20057;-68
2021/01/01 08:52:20;;;;;;;57.08;24.55;;;;;;;0.59;100.00;100501.72;6250800;28;20040;-68
2021/01/01 08:55:21;;;;;;;49.08;23.33;;;;;;;0.65;100.00;100501.59;6251023;28;20494;-68
2021/01/01 08:58:23;;;;;;;56.05;24.13;;;;;;;0.59;100.00;100495.66;6250327;28;20056;-68
2021/01/01 09:01:25;;;;;;;52.28;22.55;;;;;;;0.58;100.00;100499.13;6250468;28;20053;-68
2021/01/01 09:04:27;;;;;;;46.65;20.80;;;;;;;0.69;100.00;100507.56;6250673;28;20053;-68
2021/01/01 09:07:28;;;;;;;57.50;24.95;;;;;;;0.68;100.00;100509.31;6250193;28;20054;-68
2021/01/01 09:10:30;;;;;;;52.67;23.10;;;;;;;0.97;100.00;100505.34;6250120;28;20053;-69
2021/01/01 09:13:32;;;;;;;45.65;22.38;;;;;;;0.85;99.44;100513.31;6249978;28;20038;-68
2021/01/01 09:16:33;;;;;;;55.65;22.02;;;;;;;0.88;99.89;100511.53;6249965;28;20560;-69
2021/01/01 09:19:34;;;;;;;59.42;25.17;;;;;;;0.90;99.76;100512.34;6249843;28;20053;-68
2021/01/01 09:22:36;;;;;;;50.00;23.35;;;;;;;0.97;100.00;100521.72;6250308;28;20052;-68
2021/01/01 09:25:38;;;;;;;50.28;24.30;;;;;;;1.02;100.00;100516.47;6250026;28;20418;-68
2021/01/01 09:28:41;;;;;;;51.75;22.58;;;;;;;1.02;99.80;100529.41;6249152;28;20494;-67
2021/01/01 09:31:45;;;;;;;48.90;22.80;;;;;;;1.05;99.98;100529.38;6250013;28;20045;-68
2021/01/01 09:34:46;;;;;;;54.20;23.13;;;;;;;1.12;99.82;100536.13;6249860;28;20414;-69
2021/01/01 09:37:51;;;;;;;49.97;22.50;;;;;;;1.12;99.08;100528.34;6249588;28;20099;-68
2021/01/01 09:40:52;;;;;;;52.40;21.17;;;;;;;1.11;98.36;100528.41;6249253;28;20097;-68
2021/01/01 09:43:54;;;;;;;44.63;20.90;;;;;;;1.16;97.74;100537.78;6249535;28;20049;-68
2021/01/01 09:46:54;;;;;;;55.00;23.75;;;;;;;1.33;98.63;100532.28;6249157;28;20057;-68
2021/01/01 09:49:55;;;;;;;41.75;19.40;;;;;;;1.40;97.39;100533.00;6249439;28;20422;-68
2021/01/01 09:52:56;;;;;;;49.88;21.23;;;;;;;1.52;96.02;100540.56;6249312;28;20486;-68
2021/01/01 09:55:57;;;;;;;48.55;20.58;;;;;;;1.53;96.36;100543.09;6249055;28;20056;-68
2021/01/01 09:58:59;;;;;;;37.88;18.05;;;;;;;1.70;94.57;100541.94;6248257;28;20103;-70
2021/01/01 10:01:59;;;;;;;43.15;19.45;;;;;;;1.58;94.07;100540.44;6249464;28;20049;-70
2021/01/01 10:05:00;;;;;;;47.75;19.35;;;;;;;1.80;93.26;100547.78;6249044;28;20057;-70
2021/01/01 10:08:01;;;;;;;41.40;19.48;;;;;;;1.61;92.62;100555.06;6249069;28;20053;-70
2021/01/01 10:11:02;;;;;;;46.22;19.77;;;;;;;1.48;93.66;100554.44;6248656;28;20057;-70
2021/01/01 10:14:04;;;;;;;41.67;19.30;;;;;;;1.76;92.68;100559.94;6248633;28;20127;-70
2021/01/01 10:17:05;;;;;;;43.05;18.33;;;;;;;1.61;93.22;100553.31;6248618;28;20057;-70
2021/01/01 10:20:06;;;;;;;41.17;19.90;;;;;;;1.55;94.05;100561.22;6248367;28;20563;-69
2021/01/01 10:23:08;;;;;;;43.35;19.27;;;;;;;1.57;95.07;100562.03;6249185;28;20041;-69
2021/01/01 10:26:09;;;;;;;40.05;18.67;;;;;;;1.65;94.00;100560.16;6246681;28;20148;-70
2021/01/01 10:29:11;;;;;;;46.70;19.00;;;;;;;1.65;93.96;100564.47;6247707;28;20158;-70
2021/01/01 10:32:13;;;;;;;40.47;19.48;;;;;;;1.71;93.82;100562.59;6248660;28;20042;-70
2021/01/01 10:35:14;;;;;;;45.72;18.42;;;;;;;1.67;93.65;100565.28;6248390;28;20053;-69
2021/01/01 10:38:15;;;;;;;41.45;18.35;;;;;;;1.61;93.59;100568.00;6248308;28;20055;-70
2021/01/01 10:41:15;;;;;;;45.17;18.00;;;;;;;1.94;93.10;100569.06;6247807;28;20532;-69
2021/01/01 10:44:17;;;;;;;38.72;18.08;;;;;;;1.71;93.25;100564.34;6247907;28;20096;-70
2021/01/01 10:47:19;;;;;;;40.22;17.83;;;;;;;1.69;93.12;100561.81;6247840;28;20056;-70
2021/01/01 10:50:19;;;;;;;43.15;18.77;;;;;;;1.71;93.96;100559.16;6247632;28;20053;-69
2021/01/01 10:53:20;;;;;;;42.40;17.92;;;;;;;1.77;93.73;100554.72;6248083;28;20124;-70
2021/01/01 10:56:22;;;;;;;43.05;19.20;;;;;;;1.63;94.04;100563.63;6247432;28;20182;-69
2021/01/01 10:59:24;;;;;;;40.10;19.48;;;;;;;1.56;93.77;100559.47;6247550;28;20079;-69
2021/01/01 11:02:25;;;;;;;39.83;18.00;;;;;;;1.56;93.82;100567.25;6247657;28;20053;-69
2021/01/01 11:05:25;;;;;;;36.05;17.17;;;;;;;1.58;94.39;100561.13;6247792;28;20552;-69
2021/01/01 11:08:26;;;;;;;41.45;18.38;;;;;;;1.65;93.87;100561.88;6247264;28;20099;-70
2021/01/01 11:11:27;;;;;;;38.03;17.42;;;;;;;1.64;93.81;100565.38;6246906;28;20506;-70
2021/01/01 11:14:42;;;;;;;37.90;17.73;;;;;;;1.84;93.17;100558.03;6247414;28;20050;-70
2021/01/01 12:21:15;;;;;;;22.52;10.73;;;;;;;2.78;87.22;100530.84;6237998;28;20482;-69
2021/01/01 12:24:26;;;;;;;26.77;12.70;;;;;;;2.82;88.02;100534.19;6241175;28;20049;-69
2021/01/01 12:27:35;;;;;;;26.42;11.07;;;;;;;2.94;87.74;100536.50;6240272;28;20064;-69
2021/01/01 12:30:37;;;;;;;25.73;10.77;;;;;;;2.96;87.12;100535.59;6232018;28;20046;-70
2021/01/01 12:33:38;;;;;;;24.85;10.73;;;;;;;3.01;86.99;100532.88;6230006;28;20049;-70
2021/01/01 12:36:40;;;;;;;25.55;11.43;;;;;;;3.07;87.99;100530.09;6229176;28;20100;-70
2021/01/01 12:39:40;;;;;;;25.48;11.85;;;;;;;3.14;88.46;100531.66;6234737;28;20054;-70
2021/01/01 12:42:41;;;;;;;24.65;10.82;;;;;;;3.16;88.64;100524.66;6241306;28;20064;-70
2021/01/01 12:45:42;;;;;;;29.77;9.98;;;;;;;3.14;89.30;100518.69;6254381;28;20179;-71
2021/01/01 12:48:43;;;;;;;23.85;10.85;;;;;;;3.14;88.48;100523.88;6246852;28;20433;-70
2021/01/01 12:51:45;;;;;;;18.98;9.25;;;;;;;3.19;88.02;100532.38;6240227;28;20045;-71
2021/01/01 12:54:46;;;;;;;23.75;10.73;;;;;;;3.26;87.87;100533.91;6229686;28;20054;-70
2021/01/01 12:57:46;;;;;;;24.05;11.15;;;;;;;3.28;87.74;100539.09;6229236;28;20741;-70
2021/01/01 13:00:47;;;;;;;19.98;10.18;;;;;;;3.43;87.57;100536.06;6229245;28;20053;-70
2021/01/01 13:03:48;;;;;;;22.27;9.82;;;;;;;3.48;86.46;100535.94;6229502;28;20080;-69
2021/01/01 13:06:51;;;;;;;26.67;10.98;;;;;;;3.44;86.75;100542.09;6237068;28;20056;-69
2021/01/01 13:09:51;;;;;;;27.45;11.05;;;;;;;3.49;86.82;100538.47;6241824;28;20046;-71
2021/01/01 13:12:52;;;;;;;22.52;10.93;;;;;;;3.53;85.49;100537.50;6242204;28;20053;-70
2021/01/01 13:15:53;;;;;;;24.42;11.57;;;;;;;3.56;85.58;100536.59;6239723;28;20136;-71
2021/01/01 13:18:55;;;;;;;23.90;11.68;;;;;;;3.39;86.44;100544.81;6241733;28;20053;-68
2021/01/01 13:21:58;;;;;;;29.05;12.45;;;;;;;3.33;86.23;100546.75;6239669;28;20050;-70
2021/01/01 13:24:59;;;;;;;28.00;12.55;;;;;;;3.24;86.94;100547.84;6241847;28;20081;-68
2021/01/01 13:28:00;;;;;;;27.70;12.63;;;;;;;3.23;88.20;100543.56;6239929;28;20415;-70
2021/01/01 13:31:01;;;;;;;29.88;13.73;;;;;;;3.31;87.61;100549.38;6239525;28;20053;-71
2021/01/01 13:34:02;;;;;;;34.95;15.25;;;;;;;3.29;88.40;100554.63;6236350;28;20049;-68
2021/01/01 13:37:03;;;;;;;34.85;15.07;;;;;;;3.31;88.15;100555.41;6236765;28;20049;-68
2021/01/01 13:40:05;;;;;;;34.70;16.90;;;;;;;3.44;87.70;100557.69;6251247;23;20514;-72
2021/01/01 13:43:06;;;;;;;35.85;16.38;;;;;;;3.36;88.30;100557.91;6223293;28;20050;-73
2021/01/01 13:46:08;;;;;;;37.38;16.42;;;;;;;3.25;88.40;100560.78;6225133;28;20050;-72
2021/01/01 13:49:09;;;;;;;37.45;17.80;;;;;;;3.25;88.17;100554.72;6209679;28;20058;-73
2021/01/01 13:52:13;;;;;;;40.95;19.75;;;;;;;3.16;89.94;100566.22;6212146;28;20050;-73
2021/01/01 13:55:14;;;;;;;37.88;17.75;;;;;;;3.21;89.98;100560.91;6222965;28;20055;-72
2021/01/01 13:58:17;;;;;;;42.22;19.17;;;;;;;3.26;89.62;100557.28;6225948;28;20045;-73
2021/01/01 14:01:19;;;;;;;40.58;19.25;;;;;;;3.16;90.44;100561.03;6235265;28;20564;-74
2021/01/01 14:04:20;;;;;;;44.50;20.60;;;;;;;3.19;90.38;100562.69;6213744;28;20047;-73
2021/01/01 14:07:21;;;;;;;43.35;18.67;;;;;;;3.09;89.89;100566.41;6213324;28;20057;-73
2021/01/01 14:10:22;;;;;;;41.92;20.02;;;;;;;3.12;90.79;100572.38;6216368;28;20113;-73
2021/01/01 14:13:23;;;;;;;43.88;20.75;;;;;;;3.16;90.61;100575.75;6215645;28;20415;-74
2021/01/01 14:16:24;;;;;;;40.65;20.05;;;;;;;3.11;90.74;100573.28;6210586;28;20515;-72
2021/01/01 14:19:25;;;;;;;43.65;19.45;;;;;;;3.11;90.73;100580.22;6212642;28;20128;-72
2021/01/01 14:22:26;;;;;;;44.10;21.02;;;;;;;3.10;90.67;100571.56;6212814;28;20042;-72
2021/01/01 14:25:27;;;;;;;39.95;18.02;;;;;;;3.21;90.98;100569.53;6212947;28;20054;-72
2021/01/01 14:28:28;;;;;;;41.38;17.80;;;;;;;3.12;91.85;100571.53;6209816;28;20046;-72
2021/01/01 14:31:29;;;;;;;41.15;19.83;;;;;;;3.03;92.35;100567.41;6211683;28;20042;-72
2021/01/01 14:34:30;;;;;;;43.10;19.33;;;;;;;2.99;92.19;100574.41;6210486;28;20070;-72
2021/01/01 14:37:31;;;;;;;38.35;18.95;;;;;;;3.04;91.21;100579.50;6211439;28;20400;-72
2021/01/01 14:40:32;;;;;;;43.28;20.40;;;;;;;2.99;91.08;100577.00;6218019;28;20046;-72
2021/01/01 14:43:33;;;;;;;38.55;17.73;;;;;;;2.98;91.80;100582.25;6212158;28;20072;-72
2021/01/01 14:46:35;;;;;;;39.42;18.65;;;;;;;3.04;91.47;100582.97;6214121;28;20092;-72
2021/01/01 14:49:36;;;;;;;41.45;19.05;;;;;;;2.94;91.88;100588.41;6210293;28;20052;-72
2021/01/01 14:52:39;;;;;;;37.40;18.45;;;;;;;2.90;92.75;100585.03;6210682;28;20414;-72